Terminal Aerodrome Forecast
Issued by NWS Milwaukee/Sullivan, WI

Home | Current Version | Previous Version | Text Only | Print | Product List | Glossary On
Versions: 1 2 3 4 5 6 7 8 9 10 11 12 13 14 15 16 17 18 19 20 21 22 23 24 25 26 27 28 29 30 31 32 33 34 35 36 37 38 39 40 41 42 43 44 45 46 47 48 49 50
628
FTUS43 KMKX 272349 AAE
TAFMSN
TAF AMD
KMSN 272349Z 2800/2824 VRB03KT P6SM BKN019 OVC060
     FM280500 00000KT 3SM BR BKN015 OVC040
     FM280900 00000KT 1SM BR SCT008 BKN015
     FM281300 00000KT 2SM BR SCT020
     FM281400 00000KT 3SM BR SCT035
     FM281600 00000KT P6SM SCT150=

USA.gov is the U.S. government's official web portal to all federal, state and local government web resources and services.